sensor_id;sensor_type;location;lat;lon;timestamp;P1;durP1;ratioP1;P2;durP2;ratioP2
71969;SDS011;59838;52.152;5.436;2023-04-09T00:01:28;35.00;;;14.73;;
71969;SDS011;59838;52.152;5.436;2023-04-09T00:03:54;32.92;;;14.35;;
71969;SDS011;59838;52.152;5.436;2023-04-09T00:06:21;36.30;;;14.20;;
71969;SDS011;59838;52.152;5.436;2023-04-09T00:08:47;31.52;;;13.95;;
71969;SDS011;59838;52.152;5.436;2023-04-09T00:11:14;31.20;;;13.77;;
71969;SDS011;59838;52.152;5.436;2023-04-09T00:13:40;36.22;;;15.32;;
71969;SDS011;59838;52.152;5.436;2023-04-09T00:16:07;38.03;;;15.45;;
71969;SDS011;59838;52.152;5.436;2023-04-09T00:18:34;38.42;;;15.30;;
71969;SDS011;59838;52.152;5.436;2023-04-09T00:21:01;30.30;;;14.45;;
71969;SDS011;59838;52.152;5.436;2023-04-09T00:23:27;34.90;;;14.67;;
71969;SDS011;59838;52.152;5.436;2023-04-09T00:25:54;35.88;;;14.57;;
71969;SDS011;59838;52.152;5.436;2023-04-09T00:28:20;32.17;;;13.98;;
71969;SDS011;59838;52.152;5.436;2023-04-09T00:30:47;34.42;;;14.73;;
71969;SDS011;59838;52.152;5.436;2023-04-09T00:33:13;33.85;;;14.43;;
71969;SDS011;59838;52.152;5.436;2023-04-09T00:35:39;33.50;;;14.13;;
71969;SDS011;59838;52.152;5.436;2023-04-09T00:38:06;36.63;;;14.73;;
71969;SDS011;59838;52.152;5.436;2023-04-09T00:40:32;37.63;;;15.65;;
71969;SDS011;59838;52.152;5.436;2023-04-09T00:42:59;41.13;;;16.42;;
71969;SDS011;59838;52.152;5.436;2023-04-09T00:45:26;40.28;;;16.65;;
71969;SDS011;59838;52.152;5.436;2023-04-09T00:47:52;31.07;;;14.07;;
71969;SDS011;59838;52.152;5.436;2023-04-09T00:50:19;31.48;;;14.30;;
71969;SDS011;59838;52.152;5.436;2023-04-09T00:52:46;36.55;;;15.27;;
71969;SDS011;59838;52.152;5.436;2023-04-09T00:55:13;35.67;;;15.05;;
71969;SDS011;59838;52.152;5.436;2023-04-09T00:57:40;36.67;;;14.48;;
71969;SDS011;59838;52.152;5.436;2023-04-09T01:00:06;34.80;;;15.77;;
71969;SDS011;59838;52.152;5.436;2023-04-09T01:02:34;39.20;;;15.68;;
71969;SDS011;59838;52.152;5.436;2023-04-09T01:05:01;33.15;;;14.52;;
71969;SDS011;59838;52.152;5.436;2023-04-09T01:13:14;38.67;;;15.17;;
71969;SDS011;59838;52.152;5.436;2023-04-09T01:15:56;35.67;;;15.73;;
71969;SDS011;59838;52.152;5.436;2023-04-09T01:20:59;34.97;;;15.90;;
71969;SDS011;59838;52.152;5.436;2023-04-09T01:26:44;31.60;;;14.03;;
71969;SDS011;59838;52.152;5.436;2023-04-09T01:29:20;37.42;;;16.00;;
71969;SDS011;59838;52.152;5.436;2023-04-09T01:31:49;42.47;;;16.02;;
71969;SDS011;59838;52.152;5.436;2023-04-09T01:34:17;39.60;;;16.13;;
71969;SDS011;59838;52.152;5.436;2023-04-09T01:36:48;35.78;;;14.75;;
71969;SDS011;59838;52.152;5.436;2023-04-09T01:39:18;33.90;;;14.60;;
71969;SDS011;59838;52.152;5.436;2023-04-09T01:41:45;34.30;;;14.23;;
71969;SDS011;59838;52.152;5.436;2023-04-09T01:44:13;32.58;;;13.68;;
71969;SDS011;59838;52.152;5.436;2023-04-09T01:46:40;35.13;;;14.88;;
71969;SDS011;59838;52.152;5.436;2023-04-09T01:49:08;32.08;;;13.80;;
71969;SDS011;59838;52.152;5.436;2023-04-09T01:51:35;38.30;;;15.00;;
71969;SDS011;59838;52.152;5.436;2023-04-09T01:54:02;36.70;;;14.95;;
71969;SDS011;59838;52.152;5.436;2023-04-09T01:56:39;35.00;;;15.00;;
71969;SDS011;59838;52.152;5.436;2023-04-09T01:59:10;30.52;;;14.43;;
71969;SDS011;59838;52.152;5.436;2023-04-09T02:01:37;35.15;;;15.63;;
71969;SDS011;59838;52.152;5.436;2023-04-09T02:04:10;35.93;;;15.00;;
71969;SDS011;59838;52.152;5.436;2023-04-09T02:09:35;36.38;;;15.18;;
71969;SDS011;59838;52.152;5.436;2023-04-09T02:12:02;33.72;;;14.75;;
71969;SDS011;59838;52.152;5.436;2023-04-09T02:14:31;38.05;;;14.63;;
71969;SDS011;59838;52.152;5.436;2023-04-09T02:16:58;35.70;;;15.03;;
71969;SDS011;59838;52.152;5.436;2023-04-09T02:19:45;35.65;;;15.57;;
71969;SDS011;59838;52.152;5.436;2023-04-09T02:22:12;29.48;;;13.82;;
71969;SDS011;59838;52.152;5.436;2023-04-09T02:24:40;35.53;;;15.73;;
71969;SDS011;59838;52.152;5.436;2023-04-09T02:27:07;31.58;;;14.43;;
71969;SDS011;59838;52.152;5.436;2023-04-09T02:29:34;30.73;;;13.73;;
71969;SDS011;59838;52.152;5.436;2023-04-09T02:32:00;35.85;;;15.70;;
71969;SDS011;59838;52.152;5.436;2023-04-09T02:34:27;35.25;;;15.18;;
71969;SDS011;59838;52.152;5.436;2023-04-09T02:36:53;37.95;;;15.30;;
71969;SDS011;59838;52.152;5.436;2023-04-09T02:39:20;37.88;;;15.77;;
71969;SDS011;59838;52.152;5.436;2023-04-09T02:41:46;35.47;;;15.40;;
71969;SDS011;59838;52.152;5.436;2023-04-09T02:44:13;38.22;;;15.48;;
71969;SDS011;59838;52.152;5.436;2023-04-09T02:46:39;33.63;;;14.93;;
71969;SDS011;59838;52.152;5.436;2023-04-09T02:49:06;35.78;;;15.82;;
71969;SDS011;59838;52.152;5.436;2023-04-09T02:51:36;37.50;;;15.45;;
71969;SDS011;59838;52.152;5.436;2023-04-09T02:54:02;31.50;;;14.53;;
71969;SDS011;59838;52.152;5.436;2023-04-09T02:56:29;33.67;;;14.93;;
71969;SDS011;59838;52.152;5.436;2023-04-09T02:58:56;38.20;;;15.55;;
71969;SDS011;59838;52.152;5.436;2023-04-09T03:01:22;36.17;;;15.50;;
71969;SDS011;59838;52.152;5.436;2023-04-09T03:03:49;36.47;;;15.88;;
71969;SDS011;59838;52.152;5.436;2023-04-09T03:06:16;30.83;;;13.33;;
71969;SDS011;59838;52.152;5.436;2023-04-09T03:08:43;36.38;;;15.25;;
71969;SDS011;59838;52.152;5.436;2023-04-09T03:11:10;37.63;;;15.45;;
71969;SDS011;59838;52.152;5.436;2023-04-09T03:13:36;34.45;;;14.77;;
71969;SDS011;59838;52.152;5.436;2023-04-09T03:16:03;35.88;;;15.52;;
71969;SDS011;59838;52.152;5.436;2023-04-09T03:18:30;31.90;;;14.63;;
71969;SDS011;59838;52.152;5.436;2023-04-09T03:20:57;36.17;;;14.35;;
71969;SDS011;59838;52.152;5.436;2023-04-09T03:23:23;30.52;;;14.05;;
71969;SDS011;59838;52.152;5.436;2023-04-09T03:25:58;32.40;;;13.75;;
71969;SDS011;59838;52.152;5.436;2023-04-09T03:28:29;34.85;;;14.48;;
71969;SDS011;59838;52.152;5.436;2023-04-09T03:30:56;33.63;;;14.17;;
71969;SDS011;59838;52.152;5.436;2023-04-09T03:33:23;36.58;;;15.40;;
71969;SDS011;59838;52.152;5.436;2023-04-09T03:35:50;30.90;;;13.93;;
71969;SDS011;59838;52.152;5.436;2023-04-09T03:38:17;31.98;;;13.85;;
71969;SDS011;59838;52.152;5.436;2023-04-09T03:40:44;34.97;;;15.07;;
71969;SDS011;59838;52.152;5.436;2023-04-09T03:43:11;37.90;;;14.03;;
71969;SDS011;59838;52.152;5.436;2023-04-09T03:45:37;32.17;;;14.20;;
71969;SDS011;59838;52.152;5.436;2023-04-09T03:48:04;32.88;;;14.60;;
71969;SDS011;59838;52.152;5.436;2023-04-09T03:50:30;29.65;;;13.70;;
71969;SDS011;59838;52.152;5.436;2023-04-09T03:52:57;32.30;;;12.43;;
71969;SDS011;59838;52.152;5.436;2023-04-09T03:55:23;31.07;;;14.57;;
71969;SDS011;59838;52.152;5.436;2023-04-09T03:57:50;32.15;;;15.13;;
71969;SDS011;59838;52.152;5.436;2023-04-09T04:00:16;31.73;;;14.05;;
71969;SDS011;59838;52.152;5.436;2023-04-09T04:02:43;30.95;;;14.88;;
71969;SDS011;59838;52.152;5.436;2023-04-09T04:05:09;29.88;;;13.70;;
71969;SDS011;59838;52.152;5.436;2023-04-09T04:07:36;26.17;;;13.23;;
71969;SDS011;59838;52.152;5.436;2023-04-09T04:10:04;29.38;;;13.77;;
71969;SDS011;59838;52.152;5.436;2023-04-09T04:12:31;30.02;;;14.15;;
71969;SDS011;59838;52.152;5.436;2023-04-09T04:14:58;29.10;;;12.95;;
71969;SDS011;59838;52.152;5.436;2023-04-09T04:17:24;28.88;;;13.50;;
71969;SDS011;59838;52.152;5.436;2023-04-09T04:19:50;32.43;;;14.07;;
71969;SDS011;59838;52.152;5.436;2023-04-09T04:22:17;29.13;;;13.38;;
71969;SDS011;59838;52.152;5.436;2023-04-09T04:24:43;27.27;;;12.52;;
71969;SDS011;59838;52.152;5.436;2023-04-09T04:27:10;28.45;;;13.35;;
71969;SDS011;59838;52.152;5.436;2023-04-09T04:29:36;28.77;;;13.18;;
71969;SDS011;59838;52.152;5.436;2023-04-09T04:32:03;31.90;;;13.83;;
71969;SDS011;59838;52.152;5.436;2023-04-09T04:34:29;32.63;;;13.98;;
71969;SDS011;59838;52.152;5.436;2023-04-09T04:36:56;25.83;;;13.65;;
71969;SDS011;59838;52.152;5.436;2023-04-09T04:39:22;31.45;;;13.00;;
71969;SDS011;59838;52.152;5.436;2023-04-09T04:41:49;30.17;;;13.85;;
71969;SDS011;59838;52.152;5.436;2023-04-09T04:44:16;29.10;;;12.93;;
71969;SDS011;59838;52.152;5.436;2023-04-09T04:46:42;26.80;;;13.30;;
71969;SDS011;59838;52.152;5.436;2023-04-09T04:49:08;29.52;;;13.32;;
71969;SDS011;59838;52.152;5.436;2023-04-09T04:51:35;29.63;;;13.30;;
71969;SDS011;59838;52.152;5.436;2023-04-09T04:54:02;31.63;;;13.85;;
71969;SDS011;59838;52.152;5.436;2023-04-09T04:56:28;31.07;;;13.57;;
71969;SDS011;59838;52.152;5.436;2023-04-09T04:58:55;29.70;;;14.15;;
71969;SDS011;59838;52.152;5.436;2023-04-09T05:01:21;30.27;;;14.02;;
71969;SDS011;59838;52.152;5.436;2023-04-09T05:03:47;32.08;;;14.15;;
71969;SDS011;59838;52.152;5.436;2023-04-09T05:06:14;30.83;;;13.50;;
71969;SDS011;59838;52.152;5.436;2023-04-09T05:08:41;29.37;;;14.97;;
71969;SDS011;59838;52.152;5.436;2023-04-09T05:11:10;32.80;;;14.18;;
71969;SDS011;59838;52.152;5.436;2023-04-09T05:13:37;27.02;;;13.18;;
71969;SDS011;59838;52.152;5.436;2023-04-09T05:16:03;27.27;;;13.95;;
71969;SDS011;59838;52.152;5.436;2023-04-09T05:18:30;27.33;;;12.73;;
71969;SDS011;59838;52.152;5.436;2023-04-09T05:20:56;27.43;;;12.57;;
71969;SDS011;59838;52.152;5.436;2023-04-09T05:23:22;30.27;;;13.48;;
71969;SDS011;59838;52.152;5.436;2023-04-09T05:25:49;29.85;;;13.82;;
71969;SDS011;59838;52.152;5.436;2023-04-09T05:28:15;26.30;;;13.07;;
71969;SDS011;59838;52.152;5.436;2023-04-09T05:30:45;30.30;;;14.73;;
71969;SDS011;59838;52.152;5.436;2023-04-09T05:33:12;33.23;;;15.30;;
71969;SDS011;59838;52.152;5.436;2023-04-09T05:35:39;28.98;;;13.40;;
71969;SDS011;59838;52.152;5.436;2023-04-09T05:38:06;28.35;;;13.98;;
71969;SDS011;59838;52.152;5.436;2023-04-09T05:40:32;36.70;;;15.55;;
71969;SDS011;59838;52.152;5.436;2023-04-09T05:43:00;35.72;;;15.35;;
71969;SDS011;59838;52.152;5.436;2023-04-09T05:45:26;38.93;;;15.40;;
71969;SDS011;59838;52.152;5.436;2023-04-09T05:47:56;30.88;;;14.73;;
71969;SDS011;59838;52.152;5.436;2023-04-09T05:50:22;39.40;;;17.20;;
71969;SDS011;59838;52.152;5.436;2023-04-09T05:52:49;37.17;;;16.15;;
71969;SDS011;59838;52.152;5.436;2023-04-09T05:55:16;42.15;;;17.25;;
71969;SDS011;59838;52.152;5.436;2023-04-09T05:57:42;42.37;;;16.97;;
71969;SDS011;59838;52.152;5.436;2023-04-09T06:00:10;36.97;;;16.50;;
71969;SDS011;59838;52.152;5.436;2023-04-09T06:02:37;29.70;;;15.40;;
71969;SDS011;59838;52.152;5.436;2023-04-09T06:05:04;32.60;;;15.25;;
71969;SDS011;59838;52.152;5.436;2023-04-09T06:07:30;37.00;;;15.90;;
71969;SDS011;59838;52.152;5.436;2023-04-09T06:09:57;34.43;;;15.73;;
71969;SDS011;59838;52.152;5.436;2023-04-09T06:12:24;37.00;;;15.10;;
71969;SDS011;59838;52.152;5.436;2023-04-09T06:14:50;39.08;;;15.45;;
71969;SDS011;59838;52.152;5.436;2023-04-09T06:17:16;36.03;;;17.38;;
71969;SDS011;59838;52.152;5.436;2023-04-09T06:19:43;31.67;;;15.38;;
71969;SDS011;59838;52.152;5.436;2023-04-09T06:22:09;36.00;;;16.80;;
71969;SDS011;59838;52.152;5.436;2023-04-09T06:24:36;35.90;;;14.88;;
71969;SDS011;59838;52.152;5.436;2023-04-09T06:27:02;30.85;;;15.02;;
71969;SDS011;59838;52.152;5.436;2023-04-09T06:29:29;33.90;;;15.52;;
71969;SDS011;59838;52.152;5.436;2023-04-09T06:31:55;33.67;;;14.95;;
71969;SDS011;59838;52.152;5.436;2023-04-09T06:34:21;32.33;;;14.33;;
71969;SDS011;59838;52.152;5.436;2023-04-09T06:36:48;33.13;;;14.70;;
71969;SDS011;59838;52.152;5.436;2023-04-09T06:39:14;32.47;;;15.45;;
71969;SDS011;59838;52.152;5.436;2023-04-09T06:41:41;34.47;;;14.57;;
71969;SDS011;59838;52.152;5.436;2023-04-09T06:44:07;27.83;;;13.90;;
71969;SDS011;59838;52.152;5.436;2023-04-09T06:46:33;27.67;;;13.33;;
71969;SDS011;59838;52.152;5.436;2023-04-09T06:49:00;27.48;;;13.55;;
71969;SDS011;59838;52.152;5.436;2023-04-09T06:51:26;26.02;;;12.40;;
71969;SDS011;59838;52.152;5.436;2023-04-09T06:53:53;24.13;;;13.52;;
71969;SDS011;59838;52.152;5.436;2023-04-09T06:56:20;25.95;;;12.50;;
71969;SDS011;59838;52.152;5.436;2023-04-09T06:58:46;28.63;;;12.70;;
71969;SDS011;59838;52.152;5.436;2023-04-09T07:01:13;22.73;;;12.30;;
71969;SDS011;59838;52.152;5.436;2023-04-09T07:03:39;30.10;;;13.43;;
71969;SDS011;59838;52.152;5.436;2023-04-09T07:06:06;27.25;;;12.98;;
71969;SDS011;59838;52.152;5.436;2023-04-09T07:08:33;23.77;;;12.30;;
71969;SDS011;59838;52.152;5.436;2023-04-09T07:10:59;23.87;;;12.23;;
71969;SDS011;59838;52.152;5.436;2023-04-09T07:13:26;24.02;;;12.10;;
71969;SDS011;59838;52.152;5.436;2023-04-09T07:15:53;25.20;;;11.70;;
71969;SDS011;59838;52.152;5.436;2023-04-09T07:18:19;21.33;;;11.18;;
71969;SDS011;59838;52.152;5.436;2023-04-09T07:20:46;21.95;;;11.70;;
71969;SDS011;59838;52.152;5.436;2023-04-09T07:23:12;24.63;;;12.07;;
71969;SDS011;59838;52.152;5.436;2023-04-09T07:25:39;21.60;;;11.00;;
71969;SDS011;59838;52.152;5.436;2023-04-09T07:28:06;20.02;;;11.23;;
71969;SDS011;59838;52.152;5.436;2023-04-09T07:30:32;20.80;;;10.70;;
71969;SDS011;59838;52.152;5.436;2023-04-09T07:32:58;22.90;;;10.88;;
71969;SDS011;59838;52.152;5.436;2023-04-09T07:35:25;18.30;;;10.60;;
71969;SDS011;59838;52.152;5.436;2023-04-09T07:37:52;21.90;;;11.15;;
71969;SDS011;59838;52.152;5.436;2023-04-09T07:40:18;18.98;;;10.40;;
71969;SDS011;59838;52.152;5.436;2023-04-09T07:42:45;20.60;;;11.35;;
71969;SDS011;59838;52.152;5.436;2023-04-09T07:45:12;19.20;;;10.35;;
71969;SDS011;59838;52.152;5.436;2023-04-09T07:47:38;21.27;;;11.87;;
71969;SDS011;59838;52.152;5.436;2023-04-09T07:50:06;22.63;;;11.38;;
71969;SDS011;59838;52.152;5.436;2023-04-09T07:52:33;20.80;;;12.13;;
71969;SDS011;59838;52.152;5.436;2023-04-09T07:55:00;20.95;;;11.70;;
71969;SDS011;59838;52.152;5.436;2023-04-09T07:57:27;20.52;;;11.38;;
71969;SDS011;59838;52.152;5.436;2023-04-09T07:59:56;22.27;;;11.47;;
71969;SDS011;59838;52.152;5.436;2023-04-09T08:02:23;22.10;;;11.88;;
71969;SDS011;59838;52.152;5.436;2023-04-09T08:04:50;20.80;;;11.55;;
71969;SDS011;59838;52.152;5.436;2023-04-09T08:07:17;22.92;;;12.60;;
71969;SDS011;59838;52.152;5.436;2023-04-09T08:09:43;21.52;;;11.15;;
71969;SDS011;59838;52.152;5.436;2023-04-09T08:12:09;21.97;;;11.53;;
71969;SDS011;59838;52.152;5.436;2023-04-09T08:14:36;18.05;;;11.27;;
71969;SDS011;59838;52.152;5.436;2023-04-09T08:17:02;21.30;;;12.30;;
71969;SDS011;59838;52.152;5.436;2023-04-09T08:19:29;22.35;;;11.82;;
71969;SDS011;59838;52.152;5.436;2023-04-09T08:21:56;21.73;;;12.32;;
71969;SDS011;59838;52.152;5.436;2023-04-09T08:24:23;20.83;;;12.03;;
71969;SDS011;59838;52.152;5.436;2023-04-09T08:26:50;23.05;;;12.13;;
71969;SDS011;59838;52.152;5.436;2023-04-09T08:29:16;26.70;;;12.65;;
71969;SDS011;59838;52.152;5.436;2023-04-09T08:31:43;21.10;;;12.77;;
71969;SDS011;59838;52.152;5.436;2023-04-09T08:34:09;21.70;;;11.48;;
71969;SDS011;59838;52.152;5.436;2023-04-09T08:36:36;19.20;;;11.10;;
71969;SDS011;59838;52.152;5.436;2023-04-09T08:39:03;23.50;;;12.75;;
71969;SDS011;59838;52.152;5.436;2023-04-09T08:41:29;24.17;;;12.63;;
71969;SDS011;59838;52.152;5.436;2023-04-09T08:43:57;22.67;;;12.32;;
71969;SDS011;59838;52.152;5.436;2023-04-09T08:46:25;21.92;;;12.40;;
71969;SDS011;59838;52.152;5.436;2023-04-09T08:48:52;23.77;;;13.17;;
71969;SDS011;59838;52.152;5.436;2023-04-09T08:51:20;25.52;;;13.07;;
71969;SDS011;59838;52.152;5.436;2023-04-09T08:53:48;22.77;;;13.07;;
71969;SDS011;59838;52.152;5.436;2023-04-09T08:56:21;26.50;;;12.48;;
71969;SDS011;59838;52.152;5.436;2023-04-09T08:58:48;27.45;;;14.13;;
71969;SDS011;59838;52.152;5.436;2023-04-09T09:01:18;25.60;;;14.03;;
71969;SDS011;59838;52.152;5.436;2023-04-09T09:06:27;23.88;;;14.20;;
71969;SDS011;59838;52.152;5.436;2023-04-09T09:09:16;24.70;;;14.45;;
71969;SDS011;59838;52.152;5.436;2023-04-09T09:11:44;26.45;;;14.52;;
71969;SDS011;59838;52.152;5.436;2023-04-09T09:14:15;24.63;;;13.60;;
71969;SDS011;59838;52.152;5.436;2023-04-09T09:16:43;26.33;;;14.30;;
71969;SDS011;59838;52.152;5.436;2023-04-09T09:19:29;26.27;;;13.90;;
71969;SDS011;59838;52.152;5.436;2023-04-09T09:22:03;21.42;;;13.25;;
71969;SDS011;59838;52.152;5.436;2023-04-09T09:24:33;24.20;;;14.32;;
71969;SDS011;59838;52.152;5.436;2023-04-09T09:27:00;22.20;;;13.03;;
71969;SDS011;59838;52.152;5.436;2023-04-09T09:29:27;24.75;;;14.10;;
71969;SDS011;59838;52.152;5.436;2023-04-09T09:31:56;23.13;;;13.13;;
71969;SDS011;59838;52.152;5.436;2023-04-09T09:34:23;25.70;;;14.38;;
71969;SDS011;59838;52.152;5.436;2023-04-09T09:36:50;24.92;;;14.23;;
71969;SDS011;59838;52.152;5.436;2023-04-09T09:39:17;27.07;;;14.93;;
71969;SDS011;59838;52.152;5.436;2023-04-09T09:41:44;26.08;;;15.00;;
71969;SDS011;59838;52.152;5.436;2023-04-09T09:44:12;24.33;;;14.63;;
71969;SDS011;59838;52.152;5.436;2023-04-09T09:46:56;25.08;;;13.70;;
71969;SDS011;59838;52.152;5.436;2023-04-09T09:49:24;24.77;;;14.63;;
71969;SDS011;59838;52.152;5.436;2023-04-09T09:51:51;23.20;;;14.17;;
71969;SDS011;59838;52.152;5.436;2023-04-09T09:54:21;19.52;;;12.38;;
71969;SDS011;59838;52.152;5.436;2023-04-09T09:56:51;20.50;;;11.77;;
71969;SDS011;59838;52.152;5.436;2023-04-09T09:59:25;19.65;;;11.45;;
71969;SDS011;59838;52.152;5.436;2023-04-09T10:01:59;20.13;;;12.10;;
71969;SDS011;59838;52.152;5.436;2023-04-09T10:04:30;19.07;;;11.63;;
71969;SDS011;59838;52.152;5.436;2023-04-09T10:07:00;20.17;;;11.75;;
71969;SDS011;59838;52.152;5.436;2023-04-09T10:09:30;18.48;;;11.52;;
71969;SDS011;59838;52.152;5.436;2023-04-09T10:12:01;19.95;;;12.88;;
71969;SDS011;59838;52.152;5.436;2023-04-09T10:14:32;20.92;;;12.52;;
71969;SDS011;59838;52.152;5.436;2023-04-09T10:17:01;21.83;;;11.97;;
71969;SDS011;59838;52.152;5.436;2023-04-09T10:19:29;19.00;;;11.80;;
71969;SDS011;59838;52.152;5.436;2023-04-09T10:21:58;21.30;;;12.23;;
71969;SDS011;59838;52.152;5.436;2023-04-09T10:24:32;19.30;;;10.82;;
71969;SDS011;59838;52.152;5.436;2023-04-09T10:27:14;22.70;;;11.90;;
71969;SDS011;59838;52.152;5.436;2023-04-09T10:29:43;19.50;;;11.30;;
71969;SDS011;59838;52.152;5.436;2023-04-09T10:32:11;19.85;;;12.18;;
71969;SDS011;59838;52.152;5.436;2023-04-09T10:34:38;18.88;;;11.85;;
71969;SDS011;59838;52.152;5.436;2023-04-09T10:37:20;20.60;;;11.65;;
71969;SDS011;59838;52.152;5.436;2023-04-09T10:39:48;16.23;;;11.15;;
71969;SDS011;59838;52.152;5.436;2023-04-09T10:42:23;18.40;;;11.37;;
71969;SDS011;59838;52.152;5.436;2023-04-09T10:45:11;21.90;;;13.00;;
71969;SDS011;59838;52.152;5.436;2023-04-09T10:47:40;19.98;;;11.13;;
71969;SDS011;59838;52.152;5.436;2023-04-09T10:50:19;19.20;;;11.68;;
71969;SDS011;59838;52.152;5.436;2023-04-09T10:52:45;19.67;;;11.02;;
71969;SDS011;59838;52.152;5.436;2023-04-09T10:55:34;17.93;;;10.73;;
71969;SDS011;59838;52.152;5.436;2023-04-09T10:58:04;19.42;;;10.52;;
71969;SDS011;59838;52.152;5.436;2023-04-09T11:00:32;16.98;;;11.13;;
71969;SDS011;59838;52.152;5.436;2023-04-09T11:05:33;15.60;;;10.15;;
71969;SDS011;59838;52.152;5.436;2023-04-09T11:08:12;19.20;;;11.20;;
71969;SDS011;59838;52.152;5.436;2023-04-09T11:10:40;18.27;;;10.60;;
71969;SDS011;59838;52.152;5.436;2023-04-09T11:13:10;14.65;;;8.73;;
71969;SDS011;59838;52.152;5.436;2023-04-09T11:15:39;18.00;;;9.55;;
71969;SDS011;59838;52.152;5.436;2023-04-09T11:18:06;13.98;;;8.77;;
71969;SDS011;59838;52.152;5.436;2023-04-09T11:20:35;13.73;;;8.50;;
71969;SDS011;59838;52.152;5.436;2023-04-09T11:23:02;12.93;;;7.88;;
71969;SDS011;59838;52.152;5.436;2023-04-09T11:25:29;10.75;;;7.45;;
71969;SDS011;59838;52.152;5.436;2023-04-09T11:27:57;10.68;;;6.85;;
71969;SDS011;59838;52.152;5.436;2023-04-09T11:30:24;12.77;;;7.88;;
71969;SDS011;59838;52.152;5.436;2023-04-09T11:32:51;11.03;;;6.13;;
71969;SDS011;59838;52.152;5.436;2023-04-09T11:35:19;10.50;;;6.63;;
71969;SDS011;59838;52.152;5.436;2023-04-09T11:37:47;10.98;;;6.40;;
71969;SDS011;59838;52.152;5.436;2023-04-09T11:40:18;10.30;;;6.18;;
71969;SDS011;59838;52.152;5.436;2023-04-09T11:42:47;9.63;;;6.22;;
71969;SDS011;59838;52.152;5.436;2023-04-09T11:45:16;11.23;;;7.43;;
71969;SDS011;59838;52.152;5.436;2023-04-09T11:47:43;9.27;;;7.00;;
71969;SDS011;59838;52.152;5.436;2023-04-09T11:50:11;14.90;;;7.82;;
71969;SDS011;59838;52.152;5.436;2023-04-09T11:52:39;11.95;;;7.47;;
71969;SDS011;59838;52.152;5.436;2023-04-09T11:55:09;13.68;;;7.13;;
71969;SDS011;59838;52.152;5.436;2023-04-09T11:57:36;6.70;;;5.07;;
71969;SDS011;59838;52.152;5.436;2023-04-09T12:00:10;11.98;;;5.15;;
71969;SDS011;59838;52.152;5.436;2023-04-09T12:02:42;7.22;;;3.85;;
71969;SDS011;59838;52.152;5.436;2023-04-09T12:05:12;7.25;;;5.07;;
71969;SDS011;59838;52.152;5.436;2023-04-09T12:07:50;9.07;;;5.50;;
71969;SDS011;59838;52.152;5.436;2023-04-09T12:10:25;8.60;;;6.40;;
71969;SDS011;59838;52.152;5.436;2023-04-09T12:12:52;7.30;;;5.00;;
71969;SDS011;59838;52.152;5.436;2023-04-09T12:15:25;8.48;;;5.15;;
71969;SDS011;59838;52.152;5.436;2023-04-09T12:17:56;12.45;;;7.43;;
71969;SDS011;59838;52.152;5.436;2023-04-09T12:22:54;9.87;;;6.80;;
71969;SDS011;59838;52.152;5.436;2023-04-09T12:25:21;11.73;;;7.78;;
71969;SDS011;59838;52.152;5.436;2023-04-09T12:27:47;12.13;;;7.57;;
71969;SDS011;59838;52.152;5.436;2023-04-09T12:30:14;11.63;;;7.05;;
71969;SDS011;59838;52.152;5.436;2023-04-09T12:32:40;10.90;;;6.93;;
71969;SDS011;59838;52.152;5.436;2023-04-09T12:35:09;13.00;;;7.97;;
71969;SDS011;59838;52.152;5.436;2023-04-09T12:37:36;10.63;;;7.80;;
71969;SDS011;59838;52.152;5.436;2023-04-09T12:40:02;12.68;;;7.47;;
71969;SDS011;59838;52.152;5.436;2023-04-09T12:42:29;11.88;;;7.57;;
71969;SDS011;59838;52.152;5.436;2023-04-09T12:44:56;11.52;;;7.88;;
71969;SDS011;59838;52.152;5.436;2023-04-09T12:47:22;12.73;;;8.20;;
71969;SDS011;59838;52.152;5.436;2023-04-09T12:49:49;11.93;;;7.35;;
71969;SDS011;59838;52.152;5.436;2023-04-09T12:52:15;9.65;;;7.80;;
71969;SDS011;59838;52.152;5.436;2023-04-09T12:54:43;11.73;;;7.40;;
71969;SDS011;59838;52.152;5.436;2023-04-09T12:57:10;12.13;;;7.93;;
71969;SDS011;59838;52.152;5.436;2023-04-09T12:59:36;11.13;;;6.80;;
71969;SDS011;59838;52.152;5.436;2023-04-09T13:02:03;9.88;;;6.95;;
71969;SDS011;59838;52.152;5.436;2023-04-09T13:04:29;10.20;;;7.00;;
71969;SDS011;59838;52.152;5.436;2023-04-09T13:06:56;12.88;;;7.82;;
71969;SDS011;59838;52.152;5.436;2023-04-09T13:09:23;12.63;;;7.38;;
71969;SDS011;59838;52.152;5.436;2023-04-09T13:11:50;10.53;;;6.70;;
71969;SDS011;59838;52.152;5.436;2023-04-09T13:14:18;11.50;;;6.93;;
71969;SDS011;59838;52.152;5.436;2023-04-09T13:16:44;11.68;;;7.18;;
71969;SDS011;59838;52.152;5.436;2023-04-09T13:19:11;11.48;;;7.70;;
71969;SDS011;59838;52.152;5.436;2023-04-09T13:21:37;11.50;;;6.78;;
71969;SDS011;59838;52.152;5.436;2023-04-09T13:24:04;12.80;;;7.87;;
71969;SDS011;59838;52.152;5.436;2023-04-09T13:26:31;12.00;;;7.20;;
71969;SDS011;59838;52.152;5.436;2023-04-09T13:28:57;10.45;;;6.80;;
71969;SDS011;59838;52.152;5.436;2023-04-09T13:31:24;9.48;;;5.93;;
71969;SDS011;59838;52.152;5.436;2023-04-09T13:33:51;10.32;;;6.82;;
71969;SDS011;59838;52.152;5.436;2023-04-09T13:36:17;10.00;;;6.43;;
71969;SDS011;59838;52.152;5.436;2023-04-09T13:38:44;12.52;;;7.20;;
71969;SDS011;59838;52.152;5.436;2023-04-09T13:41:10;10.00;;;7.00;;
71969;SDS011;59838;52.152;5.436;2023-04-09T13:43:37;10.98;;;7.05;;
71969;SDS011;59838;52.152;5.436;2023-04-09T13:46:03;11.60;;;7.32;;
71969;SDS011;59838;52.152;5.436;2023-04-09T13:48:30;10.40;;;6.60;;
71969;SDS011;59838;52.152;5.436;2023-04-09T13:50:56;10.65;;;6.53;;
71969;SDS011;59838;52.152;5.436;2023-04-09T13:53:22;10.77;;;6.45;;
71969;SDS011;59838;52.152;5.436;2023-04-09T13:55:50;8.55;;;5.88;;
71969;SDS011;59838;52.152;5.436;2023-04-09T13:58:16;9.48;;;5.60;;
71969;SDS011;59838;52.152;5.436;2023-04-09T14:00:43;10.50;;;6.57;;
71969;SDS011;59838;52.152;5.436;2023-04-09T14:03:09;10.60;;;5.90;;
71969;SDS011;59838;52.152;5.436;2023-04-09T14:05:36;8.27;;;5.60;;
71969;SDS011;59838;52.152;5.436;2023-04-09T14:08:02;11.10;;;7.40;;
71969;SDS011;59838;52.152;5.436;2023-04-09T14:10:29;11.75;;;6.18;;
71969;SDS011;59838;52.152;5.436;2023-04-09T14:12:56;8.30;;;5.97;;
71969;SDS011;59838;52.152;5.436;2023-04-09T14:15:23;9.02;;;6.10;;
71969;SDS011;59838;52.152;5.436;2023-04-09T14:17:49;9.55;;;5.72;;
71969;SDS011;59838;52.152;5.436;2023-04-09T14:20:18;8.60;;;6.25;;
71969;SDS011;59838;52.152;5.436;2023-04-09T14:22:46;7.90;;;5.10;;
71969;SDS011;59838;52.152;5.436;2023-04-09T14:25:14;8.83;;;5.73;;
71969;SDS011;59838;52.152;5.436;2023-04-09T14:27:41;7.68;;;5.63;;
71969;SDS011;59838;52.152;5.436;2023-04-09T14:30:08;9.48;;;5.93;;
71969;SDS011;59838;52.152;5.436;2023-04-09T14:32:35;9.70;;;5.70;;
71969;SDS011;59838;52.152;5.436;2023-04-09T14:35:01;8.02;;;5.40;;
71969;SDS011;59838;52.152;5.436;2023-04-09T14:37:28;9.83;;;5.80;;
71969;SDS011;59838;52.152;5.436;2023-04-09T14:39:55;9.05;;;5.85;;
71969;SDS011;59838;52.152;5.436;2023-04-09T14:42:22;9.60;;;6.13;;
71969;SDS011;59838;52.152;5.436;2023-04-09T14:44:48;7.95;;;5.90;;
71969;SDS011;59838;52.152;5.436;2023-04-09T14:47:15;11.85;;;6.22;;
71969;SDS011;59838;52.152;5.436;2023-04-09T14:49:41;10.27;;;6.37;;
71969;SDS011;59838;52.152;5.436;2023-04-09T14:52:08;7.35;;;5.18;;